Time;durP1;ratioP1;P1;durP2;ratioP2;P2;SDS_P1;SDS_P2;PMS_P1;PMS_P2;Temp;Humidity;BMP_temperature;BMP_pressure;BME280_temperature;BME280_humidity;BME280_pressure;Samples;Min_cycle;Max_cycle;Signal;HPM_P1;HPM_P2
2023/10/28 00:00:58;;;;;;;24.10;9.90;;;;;;;15.99;100.00;98967.59;109778;1249;73020;-71
2023/10/28 00:03:26;;;;;;;24.50;10.10;;;;;;;16.01;100.00;98965.80;109791;1250;62747;-73
2023/10/28 00:05:54;;;;;;;32.80;12.20;;;;;;;16.03;100.00;98961.46;109741;1250;72872;-73
2023/10/28 00:08:21;;;;;;;23.50;11.40;;;;;;;16.04;100.00;98950.95;109753;1250;61316;-74
2023/10/28 00:10:49;;;;;;;35.50;12.10;;;;;;;16.06;100.00;98947.42;109788;1249;59058;-73
2023/10/28 00:13:16;;;;;;;27.70;10.30;;;;;;;16.08;100.00;98939.64;109772;1249;71851;-74
2023/10/28 00:15:44;;;;;;;26.00;10.60;;;;;;;16.09;100.00;98934.52;109783;1249;63611;-73
2023/10/28 00:18:12;;;;;;;30.00;12.10;;;;;;;16.09;100.00;98931.39;109764;1250;74504;-73
2023/10/28 00:20:41;;;;;;;37.60;12.30;;;;;;;16.10;100.00;98926.91;109759;1250;61712;-73
2023/10/28 00:23:08;;;;;;;26.60;9.90;;;;;;;16.09;100.00;98921.48;109787;1249;60099;-74
2023/10/28 00:25:36;;;;;;;33.50;10.10;;;;;;;16.08;100.00;98920.04;109809;1250;73117;-73
2023/10/28 00:28:04;;;;;;;22.50;10.20;;;;;;;16.07;100.00;98914.31;109811;1250;62463;-72
2023/10/28 00:30:32;;;;;;;21.80;9.30;;;;;;;16.07;100.00;98908.20;109640;1249;72880;-71
2023/10/28 00:32:59;;;;;;;25.20;10.00;;;;;;;16.06;100.00;98899.42;109651;1249;61827;-73
2023/10/28 00:35:30;;;;;;;30.50;11.00;;;;;;;16.07;100.00;98896.73;109807;1249;58616;-73
2023/10/28 00:37:58;;;;;;;25.00;10.00;;;;;;;16.07;100.00;98889.46;109762;1250;71185;-73
2023/10/28 00:40:26;;;;;;;24.90;8.90;;;;;;;16.08;100.00;98886.23;109765;1250;63743;-71
2023/10/28 00:42:53;;;;;;;20.40;10.30;;;;;;;16.09;100.00;98884.17;109766;1249;72470;-72
2023/10/28 00:45:21;;;;;;;19.80;9.20;;;;;;;16.09;100.00;98878.69;109677;1250;60488;-73
2023/10/28 00:47:52;;;;;;;23.30;9.70;;;;;;;16.11;100.00;98874.45;109694;1249;59630;-73
2023/10/28 00:50:20;;;;;;;25.90;9.70;;;;;;;16.13;100.00;98870.27;109775;1250;72173;-72
2023/10/28 00:52:54;;;;;;;17.70;8.90;;;;;;;16.15;100.00;98870.90;109641;1257;63860;-72
2023/10/28 00:55:23;;;;;;;22.30;9.50;;;;;;;16.18;100.00;98859.75;109792;1250;71482;-74
2023/10/28 00:57:51;;;;;;;16.30;7.50;;;;;;;16.20;100.00;98853.29;109791;1250;60736;-72
2023/10/28 01:00:20;;;;;;;18.90;8.90;;;;;;;16.24;100.00;98850.80;109735;1249;58788;-74
2023/10/28 01:02:48;;;;;;;19.80;9.50;;;;;;;16.26;100.00;98851.50;109801;1249;72380;-73
2023/10/28 01:05:16;;;;;;;24.60;9.20;;;;;;;16.30;100.00;98845.61;109837;1250;63937;-73
2023/10/28 01:07:46;;;;;;;21.60;8.80;;;;;;;16.33;100.00;98837.59;109671;1249;71198;-72
2023/10/28 01:10:30;;;;;;;24.30;11.10;;;;;;;16.36;100.00;98832.83;109742;1250;61623;-74
2023/10/28 01:13:00;;;;;;;28.90;9.70;;;;;;;16.40;100.00;98832.08;109659;1249;58963;-75
2023/10/28 01:15:28;;;;;;;21.50;8.10;;;;;;;16.42;100.00;98826.84;109705;1249;73024;-72
2023/10/28 01:17:57;;;;;;;14.70;6.80;;;;;;;16.44;100.00;98826.23;109807;1249;62857;-73
2023/10/28 01:20:25;;;;;;;20.20;9.20;;;;;;;16.47;100.00;98819.27;109751;1250;72749;-75
2023/10/28 01:22:52;;;;;;;17.70;9.40;;;;;;;16.49;100.00;98813.90;109735;1250;61867;-74
2023/10/28 01:25:20;;;;;;;22.70;8.10;;;;;;;16.50;100.00;98814.81;109789;1250;58891;-73
2023/10/28 01:27:49;;;;;;;10.80;6.80;;;;;;;16.52;100.00;98814.94;109688;1250;71789;-73
2023/10/28 01:30:16;;;;;;;16.00;7.70;;;;;;;16.54;100.00;98808.05;109781;1250;62870;-73
2023/10/28 01:32:44;;;;;;;13.10;7.20;;;;;;;16.55;100.00;98796.55;109711;1249;71589;-74
2023/10/28 01:35:13;;;;;;;19.40;7.90;;;;;;;16.56;100.00;98801.17;109677;1250;61797;-74
2023/10/28 01:37:41;;;;;;;19.30;8.70;;;;;;;16.58;100.00;98794.32;109694;1250;60158;-73
2023/10/28 01:40:13;;;;;;;13.40;7.30;;;;;;;16.60;100.00;98783.19;109757;1250;73001;-74
2023/10/28 01:42:42;;;;;;;22.30;8.30;;;;;;;16.61;100.00;98780.44;109778;1250;62611;-73
2023/10/28 01:45:10;;;;;;;18.30;8.00;;;;;;;16.62;100.00;98779.40;109654;1250;71432;-74
2023/10/28 01:47:41;;;;;;;14.80;7.60;;;;;;;16.63;100.00;98773.09;109673;1252;61651;-73
2023/10/28 01:50:11;;;;;;;16.80;8.20;;;;;;;16.65;100.00;98770.29;109775;1249;60090;-73
2023/10/28 01:52:40;;;;;;;11.80;7.50;;;;;;;16.65;100.00;98770.06;109741;1249;72384;-72
2023/10/28 01:55:07;;;;;;;19.50;8.20;;;;;;;16.66;100.00;98774.48;109824;1249;64059;-74
2023/10/28 01:57:35;;;;;;;18.60;7.60;;;;;;;16.68;100.00;98769.20;109703;1249;72748;-72
2023/10/28 02:00:06;;;;;;;16.60;10.00;;;;;;;16.69;100.00;98767.28;109679;1250;60419;-75
2023/10/28 02:02:36;;;;;;;21.80;9.60;;;;;;;16.71;100.00;98758.44;109791;1249;58010;-73
2023/10/28 02:05:05;;;;;;;19.20;11.70;;;;;;;16.72;100.00;98756.54;109731;1250;73842;-73
2023/10/28 02:07:36;;;;;;;24.60;9.70;;;;;;;16.73;100.00;98749.22;109813;1250;64210;-72
2023/10/28 02:10:05;;;;;;;28.60;9.80;;;;;;;16.74;100.00;98744.83;109752;1250;72740;-72
2023/10/28 02:12:34;;;;;;;24.90;10.60;;;;;;;16.75;100.00;98741.84;109756;1249;60842;-73
2023/10/28 02:15:03;;;;;;;25.80;10.50;;;;;;;16.76;100.00;98744.09;109764;1250;58807;-75
2023/10/28 02:17:30;;;;;;;24.70;10.10;;;;;;;16.76;100.00;98738.73;109701;1249;73976;-75
2023/10/28 02:19:58;;;;;;;25.70;11.80;;;;;;;16.78;100.00;98739.78;109705;1250;63655;-74
2023/10/28 02:22:26;;;;;;;18.10;10.20;;;;;;;16.79;100.00;98738.86;109646;1249;72715;-73
2023/10/28 02:24:54;;;;;;;32.20;14.10;;;;;;;16.79;100.00;98731.92;109775;1250;61635;-73
2023/10/28 02:27:21;;;;;;;24.90;10.70;;;;;;;16.80;100.00;98730.55;109725;1254;60068;-73
2023/10/28 02:29:49;;;;;;;23.30;10.80;;;;;;;16.81;100.00;98731.05;109714;1250;72605;-74
2023/10/28 02:32:16;;;;;;;17.30;10.10;;;;;;;16.82;100.00;98724.55;109859;1249;63684;-73
2023/10/28 02:34:43;;;;;;;17.90;9.50;;;;;;;16.82;100.00;98718.52;109814;1250;72420;-73
2023/10/28 02:37:11;;;;;;;17.10;9.50;;;;;;;16.83;100.00;98709.29;109785;1254;60423;-74
2023/10/28 02:39:38;;;;;;;19.90;9.40;;;;;;;16.83;100.00;98693.88;109760;1249;58169;-74
2023/10/28 02:42:06;;;;;;;19.90;8.90;;;;;;;16.83;100.00;98695.33;109713;1250;72630;-73
2023/10/28 02:44:34;;;;;;;19.80;9.10;;;;;;;16.82;100.00;98690.63;109780;1249;63566;-74
2023/10/28 02:47:01;;;;;;;22.30;8.50;;;;;;;16.83;100.00;98676.64;109812;1250;70623;-74
2023/10/28 02:49:29;;;;;;;22.70;9.80;;;;;;;16.84;100.00;98668.25;109713;1251;60452;-73
2023/10/28 02:51:57;;;;;;;19.50;8.60;;;;;;;16.84;100.00;98663.29;109802;1249;60108;-74
2023/10/28 02:54:25;;;;;;;19.60;9.40;;;;;;;16.84;100.00;98653.19;109767;1250;72609;-74
2023/10/28 02:56:52;;;;;;;19.50;10.20;;;;;;;16.85;100.00;98647.80;109767;1249;63799;-71
2023/10/28 02:59:20;;;;;;;14.30;7.70;;;;;;;16.85;100.00;98647.42;109755;1251;72754;-73
2023/10/28 03:01:47;;;;;;;21.60;8.20;;;;;;;16.85;100.00;98647.98;109761;1254;60361;-73
2023/10/28 03:04:17;;;;;;;25.10;8.00;;;;;;;16.85;100.00;98650.21;109808;1250;58772;-73
2023/10/28 03:06:45;;;;;;;21.00;8.40;;;;;;;16.85;100.00;98643.70;109825;1250;72915;-73
2023/10/28 03:09:12;;;;;;;15.30;7.10;;;;;;;16.86;100.00;98637.42;109762;1249;62618;-73
2023/10/28 03:11:40;;;;;;;20.90;8.60;;;;;;;16.86;100.00;98632.77;109805;1254;71422;-73
2023/10/28 03:14:07;;;;;;;15.90;9.00;;;;;;;16.86;100.00;98624.52;109736;1250;60857;-74
2023/10/28 03:16:35;;;;;;;13.50;8.20;;;;;;;16.87;100.00;98618.28;109794;1250;60016;-73
2023/10/28 03:19:02;;;;;;;28.20;9.20;;;;;;;16.85;100.00;98610.32;109782;1250;72974;-72
2023/10/28 03:21:30;;;;;;;19.00;8.50;;;;;;;16.86;100.00;98600.68;109787;1250;61283;-73
2023/10/28 03:23:57;;;;;;;14.80;8.60;;;;;;;16.85;100.00;98590.93;109657;1250;72652;-73
2023/10/28 03:26:25;;;;;;;15.80;8.60;;;;;;;16.84;100.00;98582.04;109707;1249;61697;-73
2023/10/28 03:28:52;;;;;;;16.50;8.50;;;;;;;16.83;100.00;98574.65;109788;1250;60024;-72
2023/10/28 03:31:20;;;;;;;25.40;8.90;;;;;;;16.81;100.00;98571.98;109724;1250;74269;-72
2023/10/28 03:33:51;;;;;;;19.90;10.10;;;;;;;16.80;100.00;98557.63;109772;1250;64081;-73
2023/10/28 03:36:19;;;;;;;15.80;7.80;;;;;;;16.79;100.00;98544.70;109749;1251;71386;-72
2023/10/28 03:38:46;;;;;;;19.20;8.80;;;;;;;16.79;100.00;98540.65;109735;1255;61254;-73
2023/10/28 03:41:13;;;;;;;19.50;8.60;;;;;;;16.78;100.00;98547.04;109845;1251;60095;-71
2023/10/28 03:43:41;;;;;;;16.70;9.30;;;;;;;16.78;100.00;98539.11;109775;1250;73298;-74
2023/10/28 03:46:15;;;;;;;14.80;9.10;;;;;;;16.78;100.00;98538.92;109765;1250;63751;-73
2023/10/28 03:48:43;;;;;;;18.00;8.10;;;;;;;16.79;100.00;98547.13;109759;1249;72963;-74
2023/10/28 03:51:10;;;;;;;23.40;8.20;;;;;;;16.81;100.00;98554.88;109720;1255;61641;-74
2023/10/28 03:53:37;;;;;;;24.20;9.40;;;;;;;16.82;100.00;98550.89;109761;1249;58847;-72
2023/10/28 03:56:05;;;;;;;18.10;7.70;;;;;;;16.82;100.00;98547.52;109761;1250;72548;-72
2023/10/28 03:58:34;;;;;;;21.70;9.20;;;;;;;16.83;100.00;98558.06;109788;1250;62807;-73
2023/10/28 04:01:02;;;;;;;21.20;8.90;;;;;;;16.83;100.00;98556.60;109720;1250;72510;-73
2023/10/28 04:03:29;;;;;;;23.30;9.30;;;;;;;16.83;100.00;98558.05;109772;1250;59556;-73
2023/10/28 04:05:57;;;;;;;25.70;8.70;;;;;;;16.83;100.00;98555.01;109782;1249;59977;-73
2023/10/28 04:08:24;;;;;;;22.00;8.20;;;;;;;16.82;100.00;98557.89;109764;1250;73788;-73
2023/10/28 04:10:52;;;;;;;22.70;8.90;;;;;;;16.83;100.00;98562.27;109750;1251;63767;-74
2023/10/28 04:13:20;;;;;;;22.70;9.50;;;;;;;16.85;100.00;98572.10;109742;1251;71501;-74
2023/10/28 04:15:47;;;;;;;17.00;7.90;;;;;;;16.85;100.00;98573.77;109732;1251;60457;-72
2023/10/28 04:18:14;;;;;;;25.10;10.40;;;;;;;16.87;100.00;98573.48;109721;1249;59112;-74
2023/10/28 04:20:42;;;;;;;24.50;9.00;;;;;;;16.87;100.00;98581.58;109818;1250;73917;-74
2023/10/28 04:23:09;;;;;;;22.00;8.50;;;;;;;16.87;100.00;98591.20;109773;1250;62709;-74
2023/10/28 04:25:36;;;;;;;17.60;8.20;;;;;;;16.89;100.00;98597.91;109714;1251;72501;-74
2023/10/28 04:28:04;;;;;;;24.50;9.00;;;;;;;16.89;100.00;98584.91;109695;1250;60468;-75
2023/10/28 04:30:31;;;;;;;23.70;9.40;;;;;;;16.89;100.00;98573.80;109737;1256;60043;-77
2023/10/28 04:32:59;;;;;;;29.00;10.00;;;;;;;16.90;100.00;98575.16;109752;1250;73909;-73
2023/10/28 04:35:27;;;;;;;26.30;10.20;;;;;;;16.90;100.00;98574.76;109745;1250;63744;-73
2023/10/28 04:37:55;;;;;;;24.10;8.70;;;;;;;16.90;100.00;98582.04;109709;1251;72768;-74
2023/10/28 04:40:26;;;;;;;22.80;9.40;;;;;;;16.91;100.00;98575.73;109685;1250;60903;-74
2023/10/28 04:42:54;;;;;;;27.60;8.30;;;;;;;16.92;100.00;98572.30;109780;1249;58705;-75
2023/10/28 04:45:22;;;;;;;29.50;9.40;;;;;;;16.92;100.00;98563.95;109732;1251;72582;-74
2023/10/28 04:47:50;;;;;;;21.20;8.70;;;;;;;16.92;100.00;98557.75;109739;1251;63631;-76
2023/10/28 04:50:18;;;;;;;25.10;8.90;;;;;;;16.93;100.00;98563.13;109750;1254;71425;-75
2023/10/28 04:52:46;;;;;;;19.40;8.10;;;;;;;16.95;100.00;98582.50;109624;1251;60855;-73
2023/10/28 04:55:13;;;;;;;27.30;9.30;;;;;;;16.98;100.00;98597.88;109749;1251;60045;-74
2023/10/28 04:57:42;;;;;;;29.80;10.00;;;;;;;17.01;100.00;98599.98;109723;1250;73796;-72
2023/10/28 05:00:11;;;;;;;21.30;8.30;;;;;;;17.04;100.00;98610.38;109764;1249;63905;-72
2023/10/28 05:02:39;;;;;;;20.20;8.20;;;;;;;17.08;100.00;98611.30;109743;1250;71858;-74
2023/10/28 05:05:07;;;;;;;32.70;11.70;;;;;;;17.10;100.00;98599.83;109702;1251;60985;-75
2023/10/28 05:07:36;;;;;;;22.20;9.10;;;;;;;17.12;100.00;98603.26;109719;1251;60129;-73
2023/10/28 05:10:04;;;;;;;30.90;10.50;;;;;;;17.15;100.00;98609.42;109731;1249;75975;-73
2023/10/28 05:12:32;;;;;;;26.00;9.90;;;;;;;17.18;100.00;98600.45;109757;1251;63567;-73
2023/10/28 05:15:00;;;;;;;21.10;7.30;;;;;;;17.19;100.00;98590.69;109734;1251;71570;-73
2023/10/28 05:17:27;;;;;;;29.50;9.10;;;;;;;17.23;100.00;98583.23;109746;1251;61747;-76
2023/10/28 05:19:54;;;;;;;22.60;9.10;;;;;;;17.28;100.00;98591.29;109793;1250;58802;-74
2023/10/28 05:22:22;;;;;;;33.00;12.90;;;;;;;17.33;100.00;98596.16;109831;1249;73845;-74
2023/10/28 05:24:52;;;;;;;29.10;10.90;;;;;;;17.38;100.00;98595.56;109838;1250;62755;-71
2023/10/28 05:27:20;;;;;;;28.80;9.30;;;;;;;17.42;100.00;98592.56;109815;1254;71615;-72
2023/10/28 05:29:48;;;;;;;25.20;9.20;;;;;;;17.47;100.00;98595.55;109785;1250;61945;-75
2023/10/28 05:32:16;;;;;;;25.80;7.60;;;;;;;17.52;100.00;98600.94;109720;1249;58800;-74
2023/10/28 05:34:44;;;;;;;24.60;8.70;;;;;;;17.57;100.00;98601.38;109742;1251;73873;-72
2023/10/28 05:37:11;;;;;;;21.60;8.00;;;;;;;17.64;100.00;98607.80;109751;1251;63896;-73
2023/10/28 05:39:41;;;;;;;23.80;8.10;;;;;;;17.74;100.00;98613.02;109742;1250;72365;-75
2023/10/28 05:42:11;;;;;;;26.20;7.20;;;;;;;17.87;100.00;98612.48;109737;1250;61705;-74
2023/10/28 05:44:38;;;;;;;22.20;7.00;;;;;;;18.03;100.00;98605.13;109745;1250;58187;-74
2023/10/28 05:47:07;;;;;;;27.00;7.40;;;;;;;18.34;100.00;98606.46;109652;1251;72702;-77
2023/10/28 05:49:37;;;;;;;21.80;6.50;;;;;;;18.80;100.00;98613.02;109754;1251;63778;-75
2023/10/28 05:52:04;;;;;;;19.40;6.80;;;;;;;19.34;100.00;98621.56;109744;1250;71476;-73
2023/10/28 05:54:33;;;;;;;17.30;5.40;;;;;;;19.90;100.00;98628.77;109724;1251;61132;-75
2023/10/28 05:57:01;;;;;;;18.30;5.60;;;;;;;20.40;100.00;98636.86;109800;1249;60047;-75
2023/10/28 05:59:29;;;;;;;23.00;5.90;;;;;;;20.92;100.00;98648.94;109762;1251;71653;-76
2023/10/28 06:01:56;;;;;;;17.70;5.90;;;;;;;21.40;100.00;98650.67;109781;1249;65866;-75
2023/10/28 06:04:24;;;;;;;20.20;5.60;;;;;;;21.84;100.00;98649.23;109697;1249;71035;-74
2023/10/28 06:06:51;;;;;;;18.30;5.00;;;;;;;22.19;100.00;98661.14;109716;1251;60983;-75
2023/10/28 06:09:20;;;;;;;15.60;6.20;;;;;;;22.39;100.00;98660.33;109779;1250;60203;-77
2023/10/28 06:11:48;;;;;;;18.60;5.90;;;;;;;22.30;100.00;98660.70;109740;1249;72715;-74
2023/10/28 06:14:18;;;;;;;20.80;6.10;;;;;;;21.97;100.00;98665.94;109730;1249;63584;-75
2023/10/28 06:16:46;;;;;;;17.30;5.40;;;;;;;21.54;100.00;98664.51;109732;1250;71424;-74
2023/10/28 06:19:14;;;;;;;14.30;5.70;;;;;;;21.14;100.00;98672.48;109705;1250;60799;-74
2023/10/28 06:21:42;;;;;;;19.80;5.80;;;;;;;20.81;100.00;98674.36;109771;1249;59033;-77
2023/10/28 06:24:10;;;;;;;11.70;4.50;;;;;;;20.52;100.00;98674.55;109735;1250;74008;-74
2023/10/28 06:26:38;;;;;;;12.00;4.10;;;;;;;20.25;100.00;98681.40;109708;1254;62262;-75
2023/10/28 06:29:05;;;;;;;19.90;4.20;;;;;;;20.07;100.00;98684.52;109718;1249;72407;-74
2023/10/28 06:31:33;;;;;;;12.30;4.00;;;;;;;19.90;100.00;98688.80;109720;1251;60832;-74
2023/10/28 06:34:03;;;;;;;15.70;4.10;;;;;;;19.75;100.00;98696.65;109725;1251;58977;-75
2023/10/28 06:36:30;;;;;;;17.40;3.90;;;;;;;19.63;100.00;98694.60;109723;1251;73542;-74
2023/10/28 06:38:57;;;;;;;11.10;3.50;;;;;;;19.56;100.00;98692.11;109708;1249;62297;-74
2023/10/28 06:41:25;;;;;;;15.10;3.50;;;;;;;19.50;100.00;98696.59;109720;1251;72528;-73
2023/10/28 06:43:53;;;;;;;12.30;3.50;;;;;;;19.42;100.00;98691.45;109742;1251;60691;-74
2023/10/28 06:46:21;;;;;;;18.10;4.00;;;;;;;19.34;100.00;98697.08;109784;1250;58759;-75
2023/10/28 06:48:48;;;;;;;10.80;3.30;;;;;;;19.30;100.00;98701.30;109776;1250;73856;-76
2023/10/28 06:51:16;;;;;;;14.10;3.40;;;;;;;19.25;100.00;98701.77;109800;1250;62487;-75
2023/10/28 06:53:44;;;;;;;11.60;3.60;;;;;;;19.20;100.00;98705.09;109722;1249;71064;-75
2023/10/28 06:56:12;;;;;;;7.00;2.90;;;;;;;19.14;100.00;98711.44;109757;1250;60518;-75
2023/10/28 06:58:39;;;;;;;12.20;3.00;;;;;;;19.10;100.00;98714.35;109751;1251;59004;-75
2023/10/28 07:01:09;;;;;;;8.30;2.70;;;;;;;19.03;100.00;98723.09;109750;1250;73892;-75
2023/10/28 07:03:40;;;;;;;5.50;1.60;;;;;;;19.00;100.00;98727.07;109759;1250;62752;-73
2023/10/28 07:06:09;;;;;;;4.90;2.00;;;;;;;18.97;100.00;98720.98;109748;1251;72695;-73
2023/10/28 07:08:36;;;;;;;7.40;2.80;;;;;;;18.93;100.00;98729.02;109683;1251;60092;-74
2023/10/28 07:11:04;;;;;;;5.50;1.80;;;;;;;18.89;100.00;98736.46;109730;1250;59990;-74
2023/10/28 07:13:32;;;;;;;7.60;2.20;;;;;;;18.85;100.00;98746.27;109728;1251;73293;-75
2023/10/28 07:16:09;;;;;;;6.30;1.20;;;;;;;18.82;100.00;98749.52;109781;1251;62460;-73
2023/10/28 07:18:37;;;;;;;4.30;1.20;;;;;;;18.77;100.00;98750.45;109691;1251;71483;-74
2023/10/28 07:21:05;;;;;;;6.40;1.80;;;;;;;18.73;100.00;98756.31;109729;1250;60028;-74
2023/10/28 07:23:36;;;;;;;7.80;1.20;;;;;;;18.68;100.00;98759.41;109741;1250;60084;-76
2023/10/28 07:26:05;;;;;;;4.90;1.30;;;;;;;18.62;100.00;98758.67;109707;1250;73061;-74
2023/10/28 07:28:37;;;;;;;9.30;1.90;;;;;;;18.58;100.00;98761.61;109755;1249;62443;-73
2023/10/28 07:31:05;;;;;;;4.40;1.10;;;;;;;18.56;100.00;98768.12;109709;1251;72698;-73
2023/10/28 07:33:34;;;;;;;6.10;0.90;;;;;;;18.53;100.00;98771.94;109696;1251;60595;-72
2023/10/28 07:36:03;;;;;;;6.10;0.80;;;;;;;18.51;100.00;98775.23;109767;1249;58882;-74
2023/10/28 07:38:30;;;;;;;3.20;0.80;;;;;;;18.49;100.00;98775.89;109748;1251;74226;-74
2023/10/28 07:40:58;;;;;;;4.60;1.10;;;;;;;18.48;100.00;98770.86;109644;1249;63733;-73
2023/10/28 07:43:26;;;;;;;2.30;0.80;;;;;;;18.48;100.00;98772.84;109721;1250;71300;-74
2023/10/28 07:45:54;;;;;;;3.00;0.90;;;;;;;18.47;100.00;98778.61;109713;1250;58765;-72
2023/10/28 07:48:22;;;;;;;1.20;0.60;;;;;;;18.46;100.00;98778.69;109764;1251;60134;-72
2023/10/28 07:50:49;;;;;;;3.00;1.00;;;;;;;18.46;100.00;98780.52;109765;1250;73915;-76
2023/10/28 07:53:17;;;;;;;4.20;0.50;;;;;;;18.43;100.00;98781.14;109764;1249;62703;-75
2023/10/28 07:55:45;;;;;;;1.80;0.60;;;;;;;18.41;100.00;98788.08;109722;1250;72645;-75
2023/10/28 07:58:12;;;;;;;3.40;0.70;;;;;;;18.42;100.00;98786.27;109667;1251;61329;-73
2023/10/28 08:00:40;;;;;;;0.90;0.60;;;;;;;18.41;100.00;98792.86;109725;1250;61310;-73
2023/10/28 08:03:07;;;;;;;2.00;0.50;;;;;;;18.42;100.00;98797.39;109770;1251;73922;-74
2023/10/28 08:05:35;;;;;;;3.90;0.40;;;;;;;18.40;100.00;98782.88;109769;1250;63416;-73
2023/10/28 08:08:03;;;;;;;3.50;0.50;;;;;;;18.39;100.00;98800.95;109723;1250;72031;-74
2023/10/28 08:10:32;;;;;;;1.70;0.30;;;;;;;18.37;100.00;98817.51;109863;1249;58763;-74
2023/10/28 08:13:01;;;;;;;1.40;0.30;;;;;;;18.36;100.00;98823.27;109957;1249;60051;-74
2023/10/28 08:15:29;;;;;;;2.20;1.00;;;;;;;18.36;100.00;98832.97;109744;1250;72615;-72
2023/10/28 08:17:56;;;;;;;1.90;0.40;;;;;;;18.36;100.00;98836.48;109754;1250;62409;-74
2023/10/28 08:20:24;;;;;;;1.60;0.10;;;;;;;18.41;100.00;98838.20;109724;1249;72726;-73
2023/10/28 08:22:51;;;;;;;2.30;0.50;;;;;;;18.61;100.00;98842.52;109677;1250;60116;-73
2023/10/28 08:25:19;;;;;;;0.90;0.20;;;;;;;19.10;98.21;98843.06;109711;1249;58840;-75
2023/10/28 08:27:47;;;;;;;1.80;0.30;;;;;;;19.85;92.98;98837.87;109711;1250;73886;-75
2023/10/28 08:30:15;;;;;;;2.40;0.20;;;;;;;20.77;86.25;98848.66;109749;1249;62356;-74
2023/10/28 08:32:43;;;;;;;2.30;0.20;;;;;;;21.65;72.66;98853.04;109733;1249;72282;-73
2023/10/28 08:35:11;;;;;;;1.20;0.60;;;;;;;22.42;63.52;98842.54;109744;1250;60086;-74
2023/10/28 08:37:39;;;;;;;1.60;0.30;;;;;;;23.06;56.39;98856.22;109732;1251;61082;-74
2023/10/28 08:40:10;;;;;;;1.80;0.30;;;;;;;23.65;51.39;98846.42;109715;1249;72688;-74
2023/10/28 08:42:38;;;;;;;0.90;0.30;;;;;;;24.17;48.82;98853.34;109733;1250;62421;-73
2023/10/28 08:45:08;;;;;;;4.10;0.20;;;;;;;24.59;46.55;98853.42;109719;1250;71468;-73
2023/10/28 08:47:38;;;;;;;2.20;0.30;;;;;;;24.96;42.66;98857.81;109731;1250;58863;-74
2023/10/28 08:50:07;;;;;;;2.40;0.30;;;;;;;25.19;41.41;98864.04;109740;1249;58786;-74
2023/10/28 08:52:35;;;;;;;1.20;0.10;;;;;;;25.41;41.02;98874.73;109733;1250;73883;-74
2023/10/28 08:55:04;;;;;;;1.90;0.10;;;;;;;25.68;40.85;98880.55;109725;1250;62433;-73
2023/10/28 08:57:34;;;;;;;1.90;0.10;;;;;;;26.06;41.56;98884.73;109756;1249;72346;-73
2023/10/28 09:00:14;;;;;;;10.90;0.40;;;;;;;26.52;39.91;98883.86;109726;1249;58848;-75
2023/10/28 09:02:45;;;;;;;0.50;0.10;;;;;;;26.84;38.92;98885.98;109651;1249;60152;-74
2023/10/28 09:05:14;;;;;;;0.20;0.00;;;;;;;27.19;39.20;98889.79;109631;1249;76580;-75
2023/10/28 09:07:45;;;;;;;0.70;0.10;;;;;;;27.44;37.36;98888.16;109755;1249;62570;-75
2023/10/28 09:10:14;;;;;;;1.30;0.10;;;;;;;27.60;36.85;98886.30;109680;1250;72881;-74
2023/10/28 09:12:46;;;;;;;1.00;0.10;;;;;;;27.89;35.13;98886.16;109671;1250;58720;-74
2023/10/28 09:15:21;;;;;;;3.30;0.20;;;;;;;28.13;34.66;98883.42;109707;1250;59395;-74
2023/10/28 09:17:50;;;;;;;2.90;0.10;;;;;;;28.35;33.27;98885.52;109644;1249;72619;-74
2023/10/28 09:20:18;;;;;;;1.80;0.20;;;;;;;28.42;33.51;98902.66;109683;1250;63799;-73
2023/10/28 09:22:46;;;;;;;2.10;0.10;;;;;;;28.61;33.27;98894.66;109736;1250;72756;-74
2023/10/28 09:25:19;;;;;;;2.90;0.10;;;;;;;28.78;33.20;98903.31;109706;1250;58839;-74
2023/10/28 09:27:47;;;;;;;1.90;0.10;;;;;;;28.91;32.68;98904.05;109764;1249;58816;-75
2023/10/28 09:30:21;;;;;;;1.50;0.30;;;;;;;29.02;32.39;98905.13;109730;1249;72564;-74
2023/10/28 09:32:53;;;;;;;0.50;0.10;;;;;;;29.03;31.78;98906.17;109747;1249;64630;-77
2023/10/28 09:35:22;;;;;;;1.50;0.20;;;;;;;28.81;32.41;98913.06;109597;1250;72495;-74
2023/10/28 09:37:50;;;;;;;2.70;0.10;;;;;;;28.69;32.52;98921.61;109734;1249;59405;-74
2023/10/28 09:42:34;;;;;;;3.10;0.20;;;;;;;29.02;32.88;98936.66;102531;1292;600147;-77
2023/10/28 09:45:05;;;;;;;0.30;0.10;;;;;;;29.27;31.82;98935.36;104944;1270;60448;-76
2023/10/28 09:47:39;;;;;;;1.50;0.10;;;;;;;29.32;31.73;98947.14;104905;1266;61318;-75
2023/10/28 09:50:07;;;;;;;4.30;0.30;;;;;;;29.34;31.41;98963.30;104793;1267;72256;-79
2023/10/28 09:52:34;;;;;;;1.60;0.20;;;;;;;28.94;31.37;98961.19;105275;1264;63672;-75
2023/10/28 09:55:05;;;;;;;0.10;0.10;;;;;;;28.47;31.91;98973.23;105034;1261;230485;-76
2023/10/28 09:57:33;;;;;;;4.30;0.30;;;;;;;28.11;32.40;98970.84;105235;1256;59334;-79
2023/10/28 10:00:05;;;;;;;0.20;0.10;;;;;;;27.77;32.76;98977.89;105870;1251;60361;-77
2023/10/28 10:02:55;;;;;;;0.40;0.20;;;;;;;27.30;33.52;98980.06;105823;1251;73654;-77
2023/10/28 10:05:31;;;;;;;0.40;0.20;;;;;;;27.00;33.47;98977.17;105842;1256;63921;-77
2023/10/28 10:08:00;;;;;;;1.80;0.30;;;;;;;26.77;33.62;98987.09;105789;1251;72962;-74
2023/10/28 10:10:27;;;;;;;2.80;0.10;;;;;;;26.55;34.22;98992.86;105817;1252;60331;-79
2023/10/28 10:13:01;;;;;;;1.70;0.20;;;;;;;26.35;34.80;98996.39;105793;1251;60344;-76
2023/10/28 10:15:30;;;;;;;0.70;0.20;;;;;;;26.33;35.05;99004.58;105912;1255;73072;-76
2023/10/28 10:18:08;;;;;;;0.30;0.30;;;;;;;26.31;35.30;99006.02;105901;1255;64039;-77
2023/10/28 10:20:35;;;;;;;2.90;0.40;;;;;;;26.45;34.97;99010.48;105900;1257;72573;-77
2023/10/28 10:23:03;;;;;;;2.00;0.40;;;;;;;26.51;34.61;99015.50;105740;1255;60064;-76
2023/10/28 10:25:39;;;;;;;0.30;0.20;;;;;;;26.46;34.53;99022.16;105803;1251;60373;-77
2023/10/28 10:28:19;;;;;;;3.00;0.20;;;;;;;26.21;34.40;99026.27;105886;1257;73067;-75
2023/10/28 10:30:45;;;;;;;1.90;0.10;;;;;;;25.79;34.62;99032.06;105843;1254;62440;-77
2023/10/28 10:33:12;;;;;;;4.10;0.10;;;;;;;25.60;35.30;99036.43;105920;1256;72669;-76
2023/10/28 10:35:41;;;;;;;1.60;0.20;;;;;;;25.50;35.71;99037.08;105627;1257;59711;-75
2023/10/28 10:38:10;;;;;;;1.80;0.20;;;;;;;25.41;36.01;99042.95;105662;1251;60222;-74
2023/10/28 10:40:46;;;;;;;1.30;0.30;;;;;;;25.10;36.01;99051.20;105828;1256;73157;-76
2023/10/28 10:43:21;;;;;;;2.10;0.20;;;;;;;24.60;36.35;99064.21;105744;1255;63859;-75
2023/10/28 10:45:48;;;;;;;2.30;0.40;;;;;;;23.98;37.00;99075.84;105702;1251;70410;-76
2023/10/28 10:48:16;;;;;;;1.80;0.40;;;;;;;23.32;38.55;99087.24;105776;1255;60403;-75
2023/10/28 10:50:43;;;;;;;3.50;1.10;;;;;;;22.73;40.48;99091.64;105629;1258;59689;-73
2023/10/28 10:53:11;;;;;;;0.80;0.60;;;;;;;22.40;41.96;99090.73;105789;1255;73046;-74
2023/10/28 10:55:40;;;;;;;3.30;0.40;;;;;;;22.13;42.15;99093.91;105843;1251;63885;-79
2023/10/28 10:58:07;;;;;;;1.00;0.40;;;;;;;21.71;42.83;99102.23;105854;1255;72665;-74
2023/10/28 11:00:34;;;;;;;3.50;0.30;;;;;;;21.36;44.22;99115.11;105788;1258;60156;-76
2023/10/28 11:03:03;;;;;;;2.00;0.40;;;;;;;21.10;46.21;99117.59;106120;1251;60184;-74
2023/10/28 11:05:31;;;;;;;0.90;0.40;;;;;;;20.87;47.93;99126.52;105930;1256;72978;-73
2023/10/28 11:07:58;;;;;;;1.50;0.40;;;;;;;20.72;49.17;99131.52;105830;1255;63930;-76
2023/10/28 11:10:25;;;;;;;1.90;0.60;;;;;;;20.53;50.60;99136.02;105905;1255;72656;-74
2023/10/28 11:12:52;;;;;;;2.20;0.50;;;;;;;20.31;52.00;99142.30;105989;1255;61241;-77
2023/10/28 11:15:23;;;;;;;3.00;0.90;;;;;;;20.15;53.24;99145.15;105976;1255;59659;-77
2023/10/28 11:17:50;;;;;;;3.00;0.70;;;;;;;20.03;54.88;99149.83;105748;1251;74105;-75
2023/10/28 11:20:19;;;;;;;3.70;1.00;;;;;;;19.89;56.87;99158.61;105750;1256;62985;-75
2023/10/28 11:22:47;;;;;;;2.80;1.60;;;;;;;19.79;57.72;99160.27;105904;1251;71250;-75